createdAt,value
2022-09-04T00:00:42.931Z,5.60
2022-09-04T00:01:45.090Z,5.50
2022-09-04T00:02:42.904Z,5.40
2022-09-04T00:03:43.032Z,5.40
2022-09-04T00:04:43.053Z,5.50
2022-09-04T00:05:42.919Z,5.90
2022-09-04T00:06:42.877Z,5.60
2022-09-04T00:07:42.844Z,5.60
2022-09-04T00:08:42.832Z,5.70
2022-09-04T00:09:42.812Z,5.80
2022-09-04T00:10:42.804Z,5.80
2022-09-04T00:11:42.804Z,6.10
2022-09-04T00:12:42.782Z,5.70
2022-09-04T00:13:42.794Z,5.50
2022-09-04T00:14:42.752Z,5.90
2022-09-04T00:15:49.739Z,5.80
2022-09-04T00:16:42.963Z,5.60
2022-09-04T00:17:42.697Z,6.00
2022-09-04T00:18:42.687Z,5.90
2022-09-04T00:19:42.675Z,5.80
2022-09-04T00:20:42.681Z,6.10
2022-09-04T00:21:42.657Z,5.80
2022-09-04T00:22:42.660Z,6.00
2022-09-04T00:23:42.634Z,5.90
2022-09-04T00:24:42.605Z,6.50
2022-09-04T00:25:42.588Z,5.80
2022-09-04T00:26:42.586Z,5.90
2022-09-04T00:27:42.598Z,6.10
2022-09-04T00:28:42.560Z,6.00
2022-09-04T00:29:42.538Z,6.00
2022-09-04T00:30:42.605Z,6.00
2022-09-04T00:31:42.518Z,6.10
2022-09-04T00:32:42.510Z,6.00
2022-09-04T00:33:42.500Z,6.40
2022-09-04T00:34:42.479Z,6.20
2022-09-04T00:35:42.477Z,6.00
2022-09-04T00:36:45.797Z,6.20
2022-09-04T00:37:43.438Z,6.00
2022-09-04T00:38:42.438Z,6.10
2022-09-04T00:39:42.466Z,6.30
2022-09-04T00:40:42.398Z,5.90
2022-09-04T00:41:42.388Z,6.00
2022-09-04T00:42:42.368Z,5.90
2022-09-04T00:43:42.367Z,6.10
2022-09-04T00:44:42.352Z,6.30
2022-09-04T00:45:42.403Z,6.20
2022-09-04T00:46:42.342Z,6.60
2022-09-04T00:47:42.321Z,6.20
2022-09-04T00:48:42.302Z,6.30
2022-09-04T00:49:42.280Z,6.30
2022-09-04T00:50:42.278Z,6.30
2022-09-04T00:51:42.260Z,6.80
2022-09-04T00:52:42.281Z,7.00
2022-09-04T00:53:42.228Z,6.20
2022-09-04T00:54:42.218Z,6.60
2022-09-04T00:55:42.209Z,6.50
2022-09-04T00:56:42.204Z,6.80
2022-09-04T00:57:42.189Z,6.40
2022-09-04T00:58:42.178Z,6.30
2022-09-04T00:59:42.150Z,6.40
2022-09-04T01:00:42.219Z,6.20
2022-09-04T01:01:42.193Z,6.30
2022-09-04T01:02:42.123Z,6.40
2022-09-04T01:03:42.112Z,6.40
2022-09-04T01:04:42.091Z,6.40
2022-09-04T01:05:42.089Z,6.30
2022-09-04T01:06:42.094Z,6.30
2022-09-04T01:07:42.051Z,6.80
2022-09-04T01:08:42.039Z,6.30
2022-09-04T01:09:42.011Z,6.50
2022-09-04T01:10:42.010Z,6.40
2022-09-04T01:11:41.991Z,6.50
2022-09-04T01:12:41.980Z,6.50
2022-09-04T01:13:41.984Z,6.70
2022-09-04T01:14:41.962Z,6.40
2022-09-04T01:15:41.960Z,6.40
2022-09-04T01:16:41.979Z,7.10
2022-09-04T01:17:41.923Z,7.10
2022-09-04T01:18:41.924Z,7.20
2022-09-04T01:19:41.897Z,6.80
2022-09-04T01:20:41.891Z,6.70
2022-09-04T01:21:41.891Z,6.60
2022-09-04T01:22:41.862Z,6.80
2022-09-04T01:23:41.843Z,6.80
2022-09-04T01:24:41.862Z,6.80
2022-09-04T01:25:41.802Z,6.70
2022-09-04T01:26:41.810Z,6.90
2022-09-04T01:27:41.792Z,6.50
2022-09-04T01:28:41.792Z,6.60
2022-09-04T01:29:41.764Z,6.90
2022-09-04T01:30:41.762Z,7.40
2022-09-04T01:31:41.787Z,6.90
2022-09-04T01:32:41.714Z,6.50
2022-09-04T01:33:41.724Z,6.80
2022-09-04T01:34:41.692Z,6.70
2022-09-04T01:35:41.683Z,6.80
2022-09-04T01:36:41.675Z,7.10
2022-09-04T01:37:41.654Z,6.80
2022-09-04T01:38:41.653Z,6.80
2022-09-04T01:39:41.696Z,6.70
2022-09-04T01:40:41.626Z,6.90
2022-09-04T01:41:41.626Z,6.90
2022-09-04T01:42:41.612Z,6.90
2022-09-04T01:43:41.586Z,6.90
2022-09-04T01:44:41.595Z,7.10
2022-09-04T01:45:41.591Z,6.80
2022-09-04T01:46:41.555Z,6.70
2022-09-04T01:47:41.536Z,6.50
2022-09-04T01:48:41.514Z,6.70
2022-09-04T01:49:41.496Z,6.70
2022-09-04T01:50:41.486Z,6.80
2022-09-04T01:51:41.487Z,7.00
2022-09-04T01:52:41.484Z,6.40
2022-09-04T01:53:41.446Z,6.60
2022-09-04T01:54:41.444Z,7.00
2022-09-04T01:55:41.418Z,6.40
2022-09-04T01:56:41.416Z,6.80
2022-09-04T01:57:41.418Z,6.60
2022-09-04T01:58:41.417Z,6.50
2022-09-04T01:59:41.378Z,6.60
2022-09-04T02:00:41.464Z,6.30
2022-09-04T02:01:41.455Z,6.60
2022-09-04T02:02:41.340Z,7.00
2022-09-04T02:03:41.338Z,6.50
2022-09-04T02:04:41.306Z,6.40
2022-09-04T02:05:41.297Z,6.30
2022-09-04T02:06:41.289Z,6.50
2022-09-04T02:07:41.346Z,6.80
2022-09-04T02:08:41.268Z,7.10
2022-09-04T02:09:41.237Z,6.60
2022-09-04T02:10:41.226Z,6.70
2022-09-04T02:11:41.266Z,6.80
2022-09-04T02:12:41.207Z,6.80
2022-09-04T02:13:41.209Z,7.60
2022-09-04T02:14:41.186Z,7.10
2022-09-04T02:15:41.166Z,7.00
2022-09-04T02:16:41.219Z,6.90
2022-09-04T02:17:41.147Z,6.50
2022-09-04T02:18:41.175Z,6.90
2022-09-04T02:19:41.129Z,6.80
2022-09-04T02:20:41.119Z,6.70
2022-09-04T02:21:41.087Z,6.90
2022-09-04T02:22:41.078Z,6.40
2022-09-04T02:23:41.059Z,7.00
2022-09-04T02:24:41.048Z,7.00
2022-09-04T02:25:41.048Z,6.90
2022-09-04T02:26:41.028Z,6.80
2022-09-04T02:27:41.008Z,6.60
2022-09-04T02:28:41.007Z,7.00
2022-09-04T02:29:40.981Z,6.50
2022-09-04T02:30:40.970Z,6.60
2022-09-04T02:31:41.001Z,7.00
2022-09-04T02:32:40.939Z,7.30
2022-09-04T02:33:40.926Z,6.90
2022-09-04T02:34:40.918Z,7.20
2022-09-04T02:35:40.900Z,7.10
2022-09-04T02:36:40.912Z,6.80
2022-09-04T02:37:40.891Z,6.90
2022-09-04T02:38:40.879Z,6.90
2022-09-04T02:39:40.901Z,6.90
2022-09-04T02:40:40.853Z,6.90
2022-09-04T02:41:40.842Z,7.50
2022-09-04T02:42:40.822Z,7.20
2022-09-04T02:43:40.810Z,7.00
2022-09-04T02:44:40.787Z,7.50
2022-09-04T02:45:40.769Z,7.20
2022-09-04T02:46:43.267Z,7.20
2022-09-04T02:47:40.753Z,7.40
2022-09-04T02:48:40.750Z,6.90
2022-09-04T02:49:40.721Z,6.90
2022-09-04T02:50:40.710Z,7.20
2022-09-04T02:51:40.740Z,7.50
2022-09-04T02:52:40.704Z,7.50
2022-09-04T02:53:40.682Z,7.10
2022-09-04T02:54:40.682Z,7.00
2022-09-04T02:55:40.653Z,7.00
2022-09-04T02:56:40.652Z,7.40
2022-09-04T02:57:40.644Z,7.20
2022-09-04T02:58:40.623Z,6.90
2022-09-04T02:59:40.603Z,6.80
2022-09-04T03:00:40.617Z,7.20
2022-09-04T03:01:40.595Z,7.20
2022-09-04T03:02:40.551Z,7.00
2022-09-04T03:03:40.552Z,7.10
2022-09-04T03:04:40.532Z,7.30
2022-09-04T03:05:40.523Z,7.40
2022-09-04T03:06:40.513Z,7.20
2022-09-04T03:07:40.523Z,7.20
2022-09-04T03:08:40.494Z,7.30
2022-09-04T03:09:40.465Z,7.20
2022-09-04T03:10:40.455Z,7.40
2022-09-04T03:11:40.444Z,7.20
2022-09-04T03:12:40.435Z,7.20
2022-09-04T03:13:40.442Z,7.20
2022-09-04T03:14:40.446Z,7.50
2022-09-04T03:15:40.396Z,7.30
2022-09-04T03:16:40.447Z,7.40
2022-09-04T03:17:40.364Z,7.30
2022-09-04T03:18:40.344Z,7.30
2022-09-04T03:19:40.334Z,7.30
2022-09-04T03:20:40.333Z,7.30
2022-09-04T03:21:40.312Z,7.20
2022-09-04T03:22:40.293Z,7.40
2022-09-04T03:23:40.284Z,7.20
2022-09-04T03:24:40.325Z,7.20
2022-09-04T03:25:40.275Z,7.40
2022-09-04T03:26:40.256Z,7.30
2022-09-04T03:27:40.247Z,7.40
2022-09-04T03:28:40.225Z,7.30
2022-09-04T03:29:40.216Z,7.70
2022-09-04T03:30:40.216Z,7.70
2022-09-04T03:31:40.261Z,7.50
2022-09-04T03:32:40.166Z,8.30
2022-09-04T03:33:40.225Z,7.40
2022-09-04T03:34:40.145Z,7.40
2022-09-04T03:35:40.170Z,7.60
2022-09-04T03:36:40.135Z,7.70
2022-09-04T03:37:40.114Z,8.00
2022-09-04T03:38:40.095Z,7.70
2022-09-04T03:39:40.184Z,7.50
2022-09-04T03:40:40.075Z,8.00
2022-09-04T03:41:40.097Z,7.70
2022-09-04T03:42:40.045Z,7.70
2022-09-04T03:43:40.037Z,8.00
2022-09-04T03:44:40.019Z,7.90
2022-09-04T03:45:40.008Z,8.00
2022-09-04T03:46:40.047Z,8.00
2022-09-04T03:47:39.996Z,8.00
2022-09-04T03:48:39.967Z,7.70
2022-09-04T03:49:39.957Z,7.90
2022-09-04T03:50:39.936Z,8.00
2022-09-04T03:51:39.946Z,8.20
2022-09-04T03:52:39.916Z,8.20
2022-09-04T03:53:39.905Z,7.90
2022-09-04T03:54:39.886Z,7.60
2022-09-04T03:55:39.877Z,7.90
2022-09-04T03:56:39.857Z,8.00
2022-09-04T03:57:39.867Z,8.10
2022-09-04T03:58:39.878Z,8.10
2022-09-04T03:59:39.843Z,8.00
2022-09-04T04:00:39.850Z,8.20
2022-09-04T04:01:39.827Z,8.30
2022-09-04T04:02:39.835Z,8.40
2022-09-04T04:03:39.819Z,8.10
2022-09-04T04:04:39.758Z,7.90
2022-09-04T04:05:39.763Z,8.10
2022-09-04T04:06:39.728Z,8.20
2022-09-04T04:07:39.729Z,8.30
2022-09-04T04:08:39.710Z,8.30
2022-09-04T04:09:39.718Z,8.20
2022-09-04T04:10:39.680Z,8.20
2022-09-04T04:11:43.321Z,8.60
2022-09-04T04:12:39.649Z,8.50
2022-09-04T04:13:39.645Z,8.40
2022-09-04T04:14:39.628Z,8.60
2022-09-04T04:15:39.630Z,8.50
2022-09-04T04:16:39.669Z,8.50
2022-09-04T04:17:39.589Z,8.40
2022-09-04T04:18:39.586Z,8.50
2022-09-04T04:19:39.560Z,8.90
2022-09-04T04:20:39.556Z,8.60
2022-09-04T04:21:39.550Z,8.60
2022-09-04T04:22:39.520Z,8.50
2022-09-04T04:23:39.509Z,8.70
2022-09-04T04:24:39.490Z,8.50
2022-09-04T04:25:39.500Z,8.60
2022-09-04T04:26:39.470Z,8.20
2022-09-04T04:27:39.463Z,8.50
2022-09-04T04:28:39.441Z,8.80
2022-09-04T04:29:39.428Z,8.60
2022-09-04T04:30:39.411Z,8.90
2022-09-04T04:31:39.522Z,8.70
2022-09-04T04:32:39.399Z,9.50
2022-09-04T04:33:39.368Z,8.50
2022-09-04T04:34:39.352Z,9.20
2022-09-04T04:35:39.389Z,8.70
2022-09-04T04:36:39.330Z,8.30
2022-09-04T04:37:39.358Z,8.20
2022-09-04T04:38:39.323Z,8.30
2022-09-04T04:39:39.354Z,8.60
2022-09-04T04:40:39.294Z,8.60
2022-09-04T04:41:39.310Z,8.70
2022-09-04T04:42:39.261Z,8.90
2022-09-04T04:43:39.261Z,8.50
2022-09-04T04:44:39.258Z,8.40
2022-09-04T04:45:39.209Z,8.70
2022-09-04T04:46:39.344Z,8.40
2022-09-04T04:47:39.190Z,8.60
2022-09-04T04:48:39.170Z,8.50
2022-09-04T04:49:39.192Z,8.50
2022-09-04T04:50:39.140Z,8.30
2022-09-04T04:51:39.138Z,8.70
2022-09-04T04:52:39.120Z,8.50
2022-09-04T04:53:39.124Z,8.40
2022-09-04T04:54:39.127Z,8.60
2022-09-04T04:55:39.091Z,8.60
2022-09-04T04:56:39.072Z,8.20
2022-09-04T04:57:39.063Z,8.70
2022-09-04T04:58:39.082Z,9.00
2022-09-04T04:59:39.039Z,8.60
2022-09-04T05:00:39.045Z,8.60
2022-09-04T05:01:39.093Z,8.40
2022-09-04T05:02:39.132Z,8.80
2022-09-04T05:03:38.971Z,8.80
2022-09-04T05:04:38.961Z,8.60
2022-09-04T05:05:38.963Z,8.50
2022-09-04T05:06:38.950Z,8.50
2022-09-04T05:07:38.932Z,8.80
2022-09-04T05:08:38.913Z,8.20
2022-09-04T05:09:38.902Z,8.40
2022-09-04T05:10:38.883Z,8.50
2022-09-04T05:11:38.891Z,8.70
2022-09-04T05:12:38.861Z,8.50
2022-09-04T05:13:38.843Z,8.80
2022-09-04T05:14:38.851Z,8.30
2022-09-04T05:15:58.259Z,8.20
2022-09-04T05:16:39.927Z,8.30
2022-09-04T05:17:38.802Z,8.50
2022-09-04T05:18:38.794Z,8.50
2022-09-04T05:19:38.774Z,8.20
2022-09-04T05:20:38.754Z,8.30
2022-09-04T05:21:38.761Z,8.30
2022-09-04T05:22:38.742Z,8.50
2022-09-04T05:23:38.723Z,8.30
2022-09-04T05:24:38.705Z,8.40
2022-09-04T05:25:38.691Z,9.00
2022-09-04T05:26:38.672Z,8.60
2022-09-04T05:27:38.673Z,8.50
2022-09-04T05:28:38.656Z,8.50
2022-09-04T05:29:38.649Z,8.30
2022-09-04T05:30:38.623Z,8.40
2022-09-04T05:31:38.770Z,8.30
2022-09-04T05:32:38.604Z,8.20
2022-09-04T05:33:38.585Z,8.30
2022-09-04T05:34:38.573Z,8.10
2022-09-04T05:35:38.563Z,8.70
2022-09-04T05:36:38.549Z,8.10
2022-09-04T05:37:38.575Z,8.40
2022-09-04T05:38:38.515Z,8.10
2022-09-04T05:39:38.573Z,7.80
2022-09-04T05:40:38.509Z,8.30
2022-09-04T05:41:38.504Z,7.80
2022-09-04T05:42:38.464Z,8.00
2022-09-04T05:43:38.474Z,7.80
2022-09-04T05:44:38.434Z,8.80
2022-09-04T05:45:38.435Z,7.70
2022-09-04T05:46:38.464Z,8.20
2022-09-04T05:47:38.402Z,7.80
2022-09-04T05:48:38.414Z,8.10
2022-09-04T05:49:38.387Z,7.90
2022-09-04T05:50:38.417Z,8.10
2022-09-04T05:51:38.358Z,7.50
2022-09-04T05:52:38.348Z,7.80
2022-09-04T05:53:38.347Z,8.40
2022-09-04T05:54:38.326Z,7.90
2022-09-04T05:55:38.315Z,8.30
2022-09-04T05:56:38.295Z,7.80
2022-09-04T05:57:38.286Z,8.00
2022-09-04T05:58:38.255Z,7.70
2022-09-04T05:59:38.296Z,7.60
2022-09-04T06:00:39.235Z,7.70
2022-09-04T06:01:38.270Z,7.90
2022-09-04T06:02:38.245Z,7.60
2022-09-04T06:03:38.199Z,8.10
2022-09-04T06:04:38.176Z,7.70
2022-09-04T06:05:38.218Z,7.70
2022-09-04T06:06:38.158Z,7.90
2022-09-04T06:07:38.164Z,7.70
2022-09-04T06:08:38.137Z,7.50
2022-09-04T06:09:38.118Z,7.90
2022-09-04T06:10:38.114Z,7.30
2022-09-04T06:11:38.116Z,7.10
2022-09-04T06:12:38.087Z,7.20
2022-09-04T06:13:38.069Z,7.20
2022-09-04T06:14:38.058Z,7.40
2022-09-04T06:15:45.142Z,7.30
2022-09-04T06:16:38.102Z,7.20
2022-09-04T06:17:38.025Z,7.50
2022-09-04T06:18:38.012Z,7.30
2022-09-04T06:19:37.993Z,7.00
2022-09-04T06:20:37.982Z,7.30
2022-09-04T06:21:37.971Z,7.00
2022-09-04T06:22:37.963Z,6.90
2022-09-04T06:23:37.976Z,7.50
2022-09-04T06:24:37.935Z,7.30
2022-09-04T06:25:37.913Z,7.00
2022-09-04T06:26:37.913Z,7.20
2022-09-04T06:27:37.885Z,7.10
2022-09-04T06:28:37.878Z,7.10
2022-09-04T06:29:37.866Z,6.90
2022-09-04T06:30:37.857Z,6.70
2022-09-04T06:31:37.878Z,6.80
2022-09-04T06:32:37.837Z,6.90
2022-09-04T06:33:37.832Z,6.50
2022-09-04T06:34:37.805Z,7.10
2022-09-04T06:35:37.785Z,6.60
2022-09-04T06:36:37.811Z,6.70
2022-09-04T06:37:37.765Z,6.70
2022-09-04T06:38:37.842Z,6.80
2022-09-04T06:39:37.770Z,6.60
2022-09-04T06:40:37.714Z,6.40
2022-09-04T06:41:37.705Z,6.40
2022-09-04T06:42:37.696Z,6.50
2022-09-04T06:43:37.963Z,6.40
2022-09-04T06:44:37.687Z,6.30
2022-09-04T06:45:37.663Z,6.90
2022-09-04T06:46:37.719Z,6.20
2022-09-04T06:47:37.634Z,6.60
2022-09-04T06:48:37.630Z,6.30
2022-09-04T06:49:37.637Z,6.40
2022-09-04T06:50:37.634Z,6.80
2022-09-04T06:51:37.584Z,6.40
2022-09-04T06:52:37.576Z,6.70
2022-09-04T06:53:37.546Z,6.60
2022-09-04T06:54:37.537Z,6.90
2022-09-04T06:55:37.536Z,6.20
2022-09-04T06:56:37.527Z,6.20
2022-09-04T06:57:37.487Z,6.40
2022-09-04T06:58:37.476Z,6.20
2022-09-04T06:59:37.487Z,5.90
2022-09-04T07:00:37.466Z,6.10
2022-09-04T07:01:37.567Z,6.20
2022-09-04T07:02:37.606Z,6.20
2022-09-04T07:03:37.429Z,5.60
2022-09-04T07:04:37.426Z,6.10
2022-09-04T07:05:37.401Z,6.30
2022-09-04T07:06:37.389Z,5.60
2022-09-04T07:07:37.370Z,5.50
2022-09-04T07:08:37.368Z,6.10
2022-09-04T07:09:37.338Z,5.60
2022-09-04T07:10:37.328Z,5.90
2022-09-04T07:11:37.321Z,5.90
2022-09-04T07:12:37.310Z,5.50
2022-09-04T07:13:37.290Z,5.50
2022-09-04T07:14:37.298Z,5.70
2022-09-04T07:15:37.306Z,5.40
2022-09-04T07:16:37.259Z,5.40
2022-09-04T07:17:37.238Z,6.00
2022-09-04T07:18:37.237Z,5.60
2022-09-04T07:19:37.249Z,5.80
2022-09-04T07:20:37.209Z,6.00
2022-09-04T07:21:37.250Z,5.90
2022-09-04T07:22:37.179Z,5.30
2022-09-04T07:23:37.220Z,5.60
2022-09-04T07:24:37.169Z,5.90
2022-09-04T07:25:37.141Z,5.60
2022-09-04T07:26:37.131Z,5.30
2022-09-04T07:27:37.112Z,5.80
2022-09-04T07:28:37.101Z,5.60
2022-09-04T07:29:37.081Z,5.50
2022-09-04T07:30:37.264Z,5.50
2022-09-04T07:31:37.080Z,5.60
2022-09-04T07:32:37.060Z,5.70
2022-09-04T07:33:37.041Z,5.40
2022-09-04T07:34:37.024Z,5.30
2022-09-04T07:35:37.011Z,5.20
2022-09-04T07:36:37.009Z,5.50
2022-09-04T07:37:36.987Z,5.20
2022-09-04T07:38:36.976Z,5.00
2022-09-04T07:39:37.003Z,5.10
2022-09-04T07:40:38.252Z,5.30
2022-09-04T07:41:36.932Z,5.10
2022-09-04T07:42:36.969Z,5.40
2022-09-04T07:43:36.912Z,5.50
2022-09-04T07:44:36.896Z,5.10
2022-09-04T07:45:36.897Z,5.20
2022-09-04T07:46:36.981Z,4.80
2022-09-04T07:47:36.843Z,5.00
2022-09-04T07:48:36.843Z,5.00
2022-09-04T07:49:36.832Z,4.80
2022-09-04T07:50:36.803Z,5.00
2022-09-04T07:51:36.803Z,4.90
2022-09-04T07:52:36.783Z,5.00
2022-09-04T07:53:36.831Z,4.80
2022-09-04T07:54:36.765Z,5.20
2022-09-04T07:55:36.765Z,4.80
2022-09-04T07:56:36.739Z,4.80
2022-09-04T07:57:36.747Z,4.60
2022-09-04T07:58:36.715Z,4.80
2022-09-04T07:59:36.713Z,4.70
2022-09-04T08:00:36.715Z,4.90
2022-09-04T08:01:40.189Z,4.90
2022-09-04T08:02:36.685Z,4.80
2022-09-04T08:03:36.634Z,4.70
2022-09-04T08:04:37.685Z,4.70
2022-09-04T08:05:36.606Z,4.80
2022-09-04T08:06:36.605Z,4.30
2022-09-04T08:07:36.586Z,4.60
2022-09-04T08:08:36.586Z,4.60
2022-09-04T08:09:36.566Z,4.60
2022-09-04T08:10:36.555Z,4.50
2022-09-04T08:11:36.567Z,4.70
2022-09-04T08:12:36.536Z,4.70
2022-09-04T08:13:36.518Z,4.90
2022-09-04T08:14:36.515Z,4.40
2022-09-04T08:15:40.888Z,4.40
2022-09-04T08:16:37.496Z,4.50
2022-09-04T08:17:36.469Z,4.00
2022-09-04T08:18:36.467Z,4.20
2022-09-04T08:19:36.449Z,4.30
2022-09-04T08:20:36.450Z,4.60
2022-09-04T08:21:36.448Z,4.40
2022-09-04T08:22:36.410Z,4.00
2022-09-04T08:23:36.386Z,4.50
2022-09-04T08:24:36.388Z,4.20
2022-09-04T08:25:36.369Z,4.00
2022-09-04T08:26:36.350Z,4.20
2022-09-04T08:27:36.356Z,4.10
2022-09-04T08:28:37.360Z,4.20
2022-09-04T08:29:36.349Z,4.10
2022-09-04T08:30:36.301Z,4.00
2022-09-04T08:31:36.277Z,3.60
2022-09-04T08:32:38.069Z,4.00
2022-09-04T08:33:36.288Z,3.90
2022-09-04T08:34:36.258Z,3.80
2022-09-04T08:35:36.345Z,3.80
2022-09-04T08:36:36.239Z,3.50
2022-09-04T08:37:36.254Z,3.70
2022-09-04T08:38:36.205Z,3.80
2022-09-04T08:39:36.254Z,3.90
2022-09-04T08:40:36.172Z,3.30
2022-09-04T08:41:36.151Z,3.40
2022-09-04T08:42:36.150Z,3.80
2022-09-04T08:43:36.120Z,3.50
2022-09-04T08:44:36.160Z,3.50
2022-09-04T08:45:42.171Z,3.40
2022-09-04T08:46:37.139Z,3.70
2022-09-04T08:47:36.067Z,3.60
2022-09-04T08:48:36.061Z,3.50
2022-09-04T08:49:36.074Z,3.40
2022-09-04T08:50:36.049Z,3.50
2022-09-04T08:51:36.024Z,3.20
2022-09-04T08:52:36.014Z,3.40
2022-09-04T08:53:35.994Z,3.20
2022-09-04T08:54:35.995Z,3.20
2022-09-04T08:55:36.003Z,2.90
2022-09-04T08:56:35.973Z,3.20
2022-09-04T08:57:35.943Z,3.00
2022-09-04T08:58:35.933Z,3.20
2022-09-04T08:59:35.923Z,2.80
2022-09-04T09:00:35.913Z,3.50
2022-09-04T09:01:35.980Z,2.90
2022-09-04T09:02:36.215Z,3.20
2022-09-04T09:03:35.883Z,2.90
2022-09-04T09:04:35.906Z,2.90
2022-09-04T09:05:36.592Z,3.00
2022-09-04T09:06:35.824Z,3.10
2022-09-04T09:07:35.825Z,3.00
2022-09-04T09:08:35.806Z,3.00
2022-09-04T09:09:35.815Z,2.60
2022-09-04T09:10:35.815Z,3.00
2022-09-04T09:11:35.785Z,2.90
2022-09-04T09:12:40.734Z,3.00
2022-09-04T09:13:36.756Z,2.80
2022-09-04T09:14:35.727Z,2.70
2022-09-04T09:15:35.746Z,2.80
2022-09-04T09:16:35.760Z,2.90
2022-09-04T09:17:35.704Z,2.80
2022-09-04T09:18:35.674Z,2.80
2022-09-04T09:19:35.686Z,2.70
2022-09-04T09:20:35.657Z,2.60
2022-09-04T09:21:35.646Z,2.60
2022-09-04T09:22:35.663Z,3.20
2022-09-04T09:23:35.599Z,3.10
2022-09-04T09:24:35.596Z,2.80
2022-09-04T09:25:35.606Z,2.80
2022-09-04T09:26:35.613Z,2.60
2022-09-04T09:27:35.564Z,2.80
2022-09-04T09:28:35.547Z,2.60
2022-09-04T09:29:35.528Z,2.50
2022-09-04T09:30:35.565Z,2.60
2022-09-04T09:31:35.511Z,2.40
2022-09-04T09:32:35.548Z,2.70
2022-09-04T09:33:35.490Z,2.50
2022-09-04T09:34:35.485Z,2.60
2022-09-04T09:35:35.471Z,2.60
2022-09-04T09:36:35.470Z,2.40
2022-09-04T09:37:35.440Z,2.30
2022-09-04T09:38:35.467Z,2.30
2022-09-04T09:39:35.480Z,2.10
2022-09-04T09:40:35.422Z,2.50
2022-09-04T09:41:35.389Z,2.60
2022-09-04T09:42:35.369Z,2.40
2022-09-04T09:43:35.368Z,2.20
2022-09-04T09:44:35.350Z,2.10
2022-09-04T09:45:35.393Z,2.00
2022-09-04T09:46:35.350Z,2.20
2022-09-04T09:47:35.330Z,2.20
2022-09-04T09:48:35.301Z,2.00
2022-09-04T09:49:35.382Z,2.20
2022-09-04T09:50:35.302Z,2.20
2022-09-04T09:51:35.252Z,2.50
2022-09-04T09:52:35.385Z,2.30
2022-09-04T09:53:35.233Z,1.90
2022-09-04T09:54:35.242Z,2.10
2022-09-04T09:55:35.211Z,2.20
2022-09-04T09:56:35.181Z,2.00
2022-09-04T09:57:35.183Z,2.20
2022-09-04T09:58:35.224Z,2.10
2022-09-04T09:59:35.161Z,1.90
2022-09-04T10:00:35.139Z,2.00
2022-09-04T10:01:35.163Z,2.20
2022-09-04T10:02:35.196Z,2.30
2022-09-04T10:03:35.125Z,2.10
2022-09-04T10:04:35.094Z,1.80
2022-09-04T10:05:35.074Z,1.90
2022-09-04T10:06:35.054Z,2.00
2022-09-04T10:07:35.052Z,2.20
2022-09-04T10:08:36.000Z,1.90
2022-09-04T10:09:35.049Z,1.90
2022-09-04T10:10:35.008Z,1.90
2022-09-04T10:11:35.034Z,1.80
2022-09-04T10:12:34.984Z,2.30
2022-09-04T10:13:35.025Z,1.80
2022-09-04T10:14:34.984Z,1.80
2022-09-04T10:15:35.067Z,1.60
2022-09-04T10:16:34.965Z,1.70
2022-09-04T10:17:34.925Z,1.50
2022-09-04T10:18:34.904Z,1.70
2022-09-04T10:19:38.969Z,1.70
2022-09-04T10:20:34.927Z,1.70
2022-09-04T10:21:34.874Z,1.70
2022-09-04T10:22:34.878Z,1.60
2022-09-04T10:23:34.912Z,1.70
2022-09-04T10:24:34.837Z,1.50
2022-09-04T10:25:34.866Z,1.70
2022-09-04T10:26:34.829Z,1.60
2022-09-04T10:27:34.801Z,1.60
2022-09-04T10:28:34.777Z,1.60
2022-09-04T10:29:34.785Z,1.70
2022-09-04T10:30:34.847Z,1.70
2022-09-04T10:31:34.757Z,1.60
2022-09-04T10:32:34.745Z,1.60
2022-09-04T10:33:34.707Z,1.60
2022-09-04T10:34:34.697Z,1.70
2022-09-04T10:35:34.717Z,1.70
2022-09-04T10:36:34.679Z,1.70
2022-09-04T10:37:34.689Z,1.60
2022-09-04T10:38:34.698Z,1.50
2022-09-04T10:39:34.760Z,1.70
2022-09-04T10:40:34.651Z,1.70
2022-09-04T10:41:34.622Z,1.80
2022-09-04T10:42:34.601Z,1.90
2022-09-04T10:43:34.626Z,1.80
2022-09-04T10:44:34.578Z,1.80
2022-09-04T10:45:34.631Z,1.70
2022-09-04T10:46:34.540Z,1.70
2022-09-04T10:47:34.540Z,1.50
2022-09-04T10:48:34.560Z,1.80
2022-09-04T10:49:34.560Z,1.60
2022-09-04T10:50:34.505Z,1.60
2022-09-04T10:51:34.539Z,1.50
2022-09-04T10:52:34.472Z,1.70
2022-09-04T10:53:34.471Z,1.70
2022-09-04T10:54:34.452Z,1.60
2022-09-04T10:55:34.440Z,1.50
2022-09-04T10:56:34.436Z,1.30
2022-09-04T10:57:34.411Z,1.40
2022-09-04T10:58:34.393Z,1.40
2022-09-04T10:59:34.394Z,1.50
2022-09-04T11:00:34.382Z,1.40
2022-09-04T11:01:34.446Z,1.50
2022-09-04T11:02:34.471Z,1.40
2022-09-04T11:03:34.333Z,1.30
2022-09-04T11:04:34.313Z,1.40
2022-09-04T11:05:34.313Z,1.40
2022-09-04T11:06:34.299Z,1.50
2022-09-04T11:07:34.284Z,1.40
2022-09-04T11:08:34.275Z,1.30
2022-09-04T11:09:34.285Z,1.50
2022-09-04T11:10:34.247Z,1.40
2022-09-04T11:11:34.260Z,1.50
2022-09-04T11:12:34.225Z,1.30
2022-09-04T11:13:34.207Z,1.20
2022-09-04T11:14:34.216Z,1.50
2022-09-04T11:15:34.221Z,1.30
2022-09-04T11:16:34.200Z,1.30
2022-09-04T11:17:34.159Z,1.20
2022-09-04T11:18:34.149Z,1.30
2022-09-04T11:19:34.138Z,1.40
2022-09-04T11:20:34.117Z,1.30
2022-09-04T11:21:34.107Z,1.30
2022-09-04T11:22:34.105Z,1.30
2022-09-04T11:23:34.075Z,1.30
2022-09-04T11:24:34.062Z,1.30
2022-09-04T11:25:34.057Z,1.30
2022-09-04T11:26:34.058Z,1.30
2022-09-04T11:27:34.007Z,1.20
2022-09-04T11:28:34.035Z,1.30
2022-09-04T11:29:34.014Z,1.20
2022-09-04T11:30:33.978Z,1.30
2022-09-04T11:31:34.115Z,1.30
2022-09-04T11:32:33.982Z,1.20
2022-09-04T11:33:33.958Z,1.30
2022-09-04T11:34:33.939Z,1.10
2022-09-04T11:35:33.956Z,1.10
2022-09-04T11:36:33.939Z,1.10
2022-09-04T11:37:33.981Z,1.10
2022-09-04T11:38:33.906Z,1.10
2022-09-04T11:39:33.931Z,1.20
2022-09-04T11:40:33.850Z,1.30
2022-09-04T11:41:33.837Z,1.10
2022-09-04T11:42:33.832Z,1.20
2022-09-04T11:43:33.831Z,1.40
2022-09-04T11:44:33.810Z,1.30
2022-09-04T11:45:33.841Z,1.00
2022-09-04T11:46:33.773Z,1.10
2022-09-04T11:47:33.784Z,1.00
2022-09-04T11:48:33.764Z,1.10
2022-09-04T11:49:33.753Z,1.20
2022-09-04T11:50:33.742Z,1.20
2022-09-04T11:51:33.724Z,1.10
2022-09-04T11:52:33.723Z,1.10
2022-09-04T11:53:33.693Z,1.10
2022-09-04T11:54:33.705Z,1.20
2022-09-04T11:55:33.740Z,1.20
2022-09-04T11:56:33.716Z,1.10
2022-09-04T11:57:33.661Z,1.00
2022-09-04T11:58:33.704Z,1.10
2022-09-04T11:59:33.621Z,1.00
2022-09-04T12:00:33.613Z,1.20
2022-09-04T12:01:33.584Z,1.00
2022-09-04T12:02:33.653Z,1.00
2022-09-04T12:03:33.600Z,1.10
2022-09-04T12:04:33.546Z,1.10
2022-09-04T12:05:33.544Z,1.20
2022-09-04T12:06:33.525Z,0.90
2022-09-04T12:07:42.639Z,1.00
2022-09-04T12:08:34.537Z,1.00
2022-09-04T12:09:33.499Z,1.00
2022-09-04T12:10:33.485Z,1.00
2022-09-04T12:11:33.458Z,1.00
2022-09-04T12:12:33.447Z,1.00
2022-09-04T12:13:33.427Z,0.90
2022-09-04T12:14:33.427Z,1.00
2022-09-04T12:15:33.424Z,1.00
2022-09-04T12:16:40.562Z,1.10
2022-09-04T12:17:33.396Z,1.00
2022-09-04T12:18:33.374Z,1.10
2022-09-04T12:19:33.387Z,1.00
2022-09-04T12:20:33.367Z,0.90
2022-09-04T12:21:33.365Z,1.00
2022-09-04T12:22:33.409Z,0.90
2022-09-04T12:23:33.314Z,1.10
2022-09-04T12:24:33.296Z,1.00
2022-09-04T12:25:33.296Z,1.00
2022-09-04T12:26:33.335Z,1.00
2022-09-04T12:27:33.263Z,0.90
2022-09-04T12:28:33.255Z,0.90
2022-09-04T12:29:33.247Z,0.90
2022-09-04T12:30:33.257Z,0.90
2022-09-04T12:31:33.305Z,0.90
2022-09-04T12:32:33.197Z,0.90
2022-09-04T12:33:33.186Z,0.90
2022-09-04T12:34:33.175Z,0.90
2022-09-04T12:35:33.163Z,0.90
2022-09-04T12:36:33.148Z,0.90
2022-09-04T12:37:33.135Z,0.80
2022-09-04T12:38:33.118Z,0.90
2022-09-04T12:39:33.186Z,0.80
2022-09-04T12:40:33.098Z,0.90
2022-09-04T12:41:33.091Z,0.90
2022-09-04T12:42:33.090Z,0.80
2022-09-04T12:43:33.070Z,0.80
2022-09-04T12:44:33.040Z,0.90
2022-09-04T12:45:33.047Z,1.00
2022-09-04T12:46:33.011Z,0.80
2022-09-04T12:47:33.052Z,0.80
2022-09-04T12:48:33.059Z,0.80
2022-09-04T12:49:33.019Z,0.80
2022-09-04T12:50:32.973Z,0.90
2022-09-04T12:51:32.972Z,0.80
2022-09-04T12:52:32.949Z,0.80
2022-09-04T12:53:32.988Z,0.80
2022-09-04T12:54:32.939Z,0.90
2022-09-04T12:55:36.129Z,0.90
2022-09-04T12:56:32.908Z,0.80
2022-09-04T12:57:32.899Z,0.80
2022-09-04T12:58:32.903Z,0.80
2022-09-04T12:59:32.878Z,0.80
2022-09-04T13:00:40.794Z,0.70
2022-09-04T13:01:33.928Z,0.70
2022-09-04T13:02:32.948Z,0.70
2022-09-04T13:03:32.844Z,0.70
2022-09-04T13:04:32.794Z,0.80
2022-09-04T13:05:32.862Z,0.70
2022-09-04T13:06:32.783Z,0.70
2022-09-04T13:07:32.755Z,0.80
2022-09-04T13:08:32.746Z,0.80
2022-09-04T13:09:32.761Z,0.70
2022-09-04T13:10:32.728Z,0.80
2022-09-04T13:11:32.756Z,0.70
2022-09-04T13:12:33.557Z,0.70
2022-09-04T13:13:32.686Z,0.70
2022-09-04T13:14:32.666Z,0.70
2022-09-04T13:15:32.667Z,0.80
2022-09-04T13:16:32.665Z,0.70
2022-09-04T13:17:32.638Z,0.70
2022-09-04T13:18:32.617Z,0.70